KPMD/PMD METAR and TAF weather

Enter ICAO airport designator
Station Type Date Time Source
KPMD METAR 2020/08/14 16:53 UTC NOAA

KPMD 141653Z VRB03KT 9SM CLR 32/07 A3005 RMK AO2 SLP140 T03220072


Station Type Date Time Source
KPMD Decoded METAR 2020/08/14 16:53 UTC NOAA

PALMDALE PROD FLIGHT PLANT, CA, United States (KPMD) 34-38N 118-05W 780M
Aug 14, 2020 - 12:53 PM EDT / 2020.08.14 1653 UTC
Wind: Variable at 3 MPH (3 KT):0
Visibility: 9 mile(s):0
Sky conditions: clear
Temperature: 90.0 F (32.2 C)
Dew Point: 45.0 F (7.2 C)
Relative Humidity: 21%
Pressure (altimeter): 30.05 in. Hg (1017 hPa)
ob: KPMD 141653Z VRB03KT 9SM CLR 32/07 A3005 RMK AO2 SLP140 T03220072
cycle: 17

Station Type Date Time Source
KPMD TAF 2020/08/14 12:40 UTC NOAA

TAF KPMD 141138Z 1412/1512 VRB05KT P6SM SCT180
FM141800 03006KT P6SM FEW080 SCT120
FM142300 24014G22KT P6SM FEW080 SCT120
FM150300 24010KT P6SM SCT120
FM150900 19006KT P6SM SKC

Example: see airport list